Lulu Pass Weather Station

This weather station provides temperature, relative humidity (RH), wind speed, gust or max wind speed, and wind direction at 10020ft near Lulu Pass at the head of Fisher Creek. This data can be used with temperature and precipitation data from the Fisher Creek SNOTEL site.

This weather station was purchased by the Friends of the Avalanche Center.

If the data has not been updated recently you can view it directly on datagarrison.com

Elevation
10020ft
Jump to table bottom
Date Time Temperature
deg F
RH, % Wind Speed Wind Gust Wind Direction
05/17/22 00:00 34.8 97 2 5 S - 178
05/16/22 23:00 34.3 98 2 7 SE - 140
05/16/22 22:00 33.8 99 5 12 NW - 316
05/16/22 21:00 32.3 99 11 19 N - 352
05/16/22 20:00 31.9 99 16 33 NW - 310
05/16/22 19:00 31.9 98 15 32 NW - 317
05/16/22 18:00 33.0 92 16 44 NW - 319
05/16/22 17:00 42.0 64 9 17 S - 178
05/16/22 16:00 42.4 62 14 27 S - 180
05/16/22 15:00 43.7 66 9 20 S - 185
05/16/22 14:00 40.8 72 14 26 S - 183
05/16/22 13:00 38.7 82 10 31 SW - 219
05/16/22 12:00 39.2 86 9 25 S - 178
05/16/22 11:00 39.2 94 11 26 NW - 299
05/16/22 10:00 36.0 77 10 31 SW - 211
05/16/22 09:00 41.4 71 5 20 S - 184
05/16/22 08:00 41.6 78 6 10 N - 347
05/16/22 07:00 39.1 76 6 20 NW - 298
05/16/22 06:00 40.3 71 12 22 S - 181
05/16/22 05:00 38.7 86 7 15 SE - 145
05/16/22 04:00 33.4 82 10 35 SW - 232
05/16/22 03:00 39.4 69 11 30 SW - 213
05/16/22 02:00 39.6 59 12 32 S - 202
05/16/22 01:00 42.0 56 16 28 S - 190
05/16/22 00:00 42.3 54 14 34 S - 168
05/15/22 23:00 42.2 52 13 28 S - 174
05/15/22 22:00 42.6 49 12 25 S - 174
05/15/22 21:00 41.7 51 9 18 SE - 147
05/15/22 20:00 42.0 52 8 17 S - 166
05/15/22 19:00 43.7 49 6 15 SW - 204
05/15/22 18:00 45.3 47 7 15 SW - 215
05/15/22 17:00 46.7 45 5 13 SW - 234
05/15/22 16:00 45.0 49 6 12 W - 251
05/15/22 15:00 44.7 55 6 13 SW - 241
05/15/22 14:00 41.6 55 6 13 W - 263
05/15/22 13:00 39.0 56 10 19 W - 277
05/15/22 12:00 37.3 67 7 18 W - 250
05/15/22 11:00 36.0 65 8 16 W - 261
05/15/22 10:00 33.2 77 9 16 SW - 229
05/15/22 09:00 31.8 79 5 12 SW - 234
05/15/22 08:00 29.9 78 3 6 W - 281
05/15/22 07:00 29.2 86 4 10 S - 191
05/15/22 06:00 25.3 89 5 17 W - 291
05/15/22 05:00 26.1 86 14 27 NW - 298
05/15/22 04:00 26.1 87 16 24 NW - 326
05/15/22 03:00 25.3 87 20 35 NW - 317
05/15/22 02:00 27.5 86 20 42 W - 286
05/15/22 01:00 26.4 96 10 27 W - 260
05/15/22 00:00 26.1 98 10 26 W - 272
05/14/22 23:00 27.0 99 9 21 W - 251